Time;durP1;ratioP1;P1;durP2;ratioP2;P2;SDS_P1;SDS_P2;PMS_P1;PMS_P2;Temp;Humidity;BMP_temperature;BMP_pressure;BME280_temperature;BME280_humidity;BME280_pressure;Samples;Min_cycle;Max_cycle;Signal;HPM_P1;HPM_P2
2022/03/16 00:02:06;;;;;;;8.40;2.20;;;19.90;98.60;;;;;;5031773;28;20049;-70
2022/03/16 00:04:33;;;;;;;16.15;3.17;;;20.00;98.70;;;;;;5033313;28;20509;-69
2022/03/16 00:07:00;;;;;;;13.75;3.00;;;19.90;98.70;;;;;;5004212;28;20449;-69
2022/03/16 00:09:28;;;;;;;9.73;2.97;;;20.00;98.70;;;;;;5041489;28;20025;-70
2022/03/16 00:11:55;;;;;;;12.60;2.42;;;20.00;98.70;;;;;;5031702;28;20033;-70
2022/03/16 00:14:22;;;;;;;8.85;2.33;;;19.90;98.70;;;;;;4997722;28;20033;-69
2022/03/16 00:16:49;;;;;;;9.15;2.55;;;19.90;98.60;;;;;;5030063;28;20026;-69
2022/03/16 00:19:16;;;;;;;7.68;2.65;;;20.00;98.70;;;;;;5015793;28;20033;-70
2022/03/16 00:21:43;;;;;;;7.40;1.80;;;20.00;98.70;;;;;;5034346;28;20117;-70
2022/03/16 00:24:10;;;;;;;3.08;1.55;;;20.00;98.70;;;;;;5016426;28;20391;-70
2022/03/16 00:26:38;;;;;;;4.97;1.90;;;20.00;98.70;;;;;;5018607;28;20384;-70
2022/03/16 00:29:05;;;;;;;7.28;2.33;;;20.00;98.70;;;;;;5014605;28;20115;-69
2022/03/16 00:31:33;;;;;;;10.88;2.00;;;20.10;98.80;;;;;;5015558;28;20087;-70
2022/03/16 00:34:01;;;;;;;8.20;2.08;;;20.20;98.80;;;;;;4998242;28;20118;-69
2022/03/16 00:36:29;;;;;;;3.63;1.50;;;20.20;98.80;;;;;;5026712;28;20033;-69
2022/03/16 00:38:56;;;;;;;8.50;2.05;;;20.20;98.70;;;;;;5031042;28;20029;-69
2022/03/16 00:41:23;;;;;;;10.88;2.70;;;20.30;98.80;;;;;;5014462;28;20128;-70
2022/03/16 00:43:50;;;;;;;7.95;2.20;;;20.30;98.80;;;;;;4994890;28;20026;-69
2022/03/16 00:46:17;;;;;;;9.82;2.90;;;20.30;98.70;;;;;;4991297;28;20037;-69
2022/03/16 00:48:45;;;;;;;12.20;2.60;;;20.30;98.80;;;;;;5016488;28;20037;-69
2022/03/16 00:51:12;;;;;;;9.10;2.40;;;20.40;98.70;;;;;;5014011;28;20036;-69
2022/03/16 00:53:40;;;;;;;10.00;2.42;;;20.40;98.70;;;;;;5007986;28;20080;-69
2022/03/16 00:56:08;;;;;;;13.07;2.38;;;20.40;98.70;;;;;;4987561;28;20038;-70
2022/03/16 00:58:36;;;;;;;14.07;2.90;;;20.30;98.70;;;;;;4980663;28;20499;-69
2022/03/16 01:01:05;;;;;;;10.90;2.90;;;20.40;98.70;;;;;;5016370;28;20132;-69
2022/03/16 01:03:33;;;;;;;7.75;2.28;;;20.40;98.70;;;;;;5031464;28;20026;-69
2022/03/16 01:06:00;;;;;;;8.60;2.25;;;20.40;98.70;;;;;;4997480;28;20061;-69
2022/03/16 01:08:28;;;;;;;13.70;2.40;;;20.40;98.70;;;;;;5013119;28;20025;-69
2022/03/16 01:10:55;;;;;;;18.13;3.03;;;20.40;98.60;;;;;;5015026;28;20037;-69
2022/03/16 01:13:23;;;;;;;28.23;4.97;;;20.50;98.70;;;;;;5013881;28;20029;-69
2022/03/16 01:15:50;;;;;;;15.38;2.58;;;20.50;98.60;;;;;;5031450;28;20452;-69
2022/03/16 01:18:17;;;;;;;15.10;2.10;;;20.50;98.60;;;;;;5013304;28;20476;-69
2022/03/16 01:20:44;;;;;;;7.93;2.05;;;20.50;98.40;;;;;;5025178;28;20583;-69
2022/03/16 01:23:11;;;;;;;11.00;1.98;;;20.60;98.50;;;;;;5018162;28;20120;-69
2022/03/16 01:25:38;;;;;;;11.27;1.70;;;20.60;98.40;;;;;;5010986;28;20042;-69
2022/03/16 01:28:06;;;;;;;12.18;2.00;;;20.70;98.50;;;;;;5013195;28;20042;-69
2022/03/16 01:30:33;;;;;;;8.18;1.98;;;20.70;98.50;;;;;;5011573;28;20040;-69
2022/03/16 01:33:00;;;;;;;10.38;2.15;;;20.80;98.40;;;;;;4991806;28;20527;-68
2022/03/16 01:35:27;;;;;;;12.20;2.08;;;20.80;98.30;;;;;;5013078;28;20026;-69
2022/03/16 01:37:55;;;;;;;13.73;2.38;;;20.90;98.40;;;;;;5026132;28;20042;-68
2022/03/16 01:40:22;;;;;;;15.38;2.38;;;21.00;98.20;;;;;;4999472;28;20041;-69
2022/03/16 01:42:49;;;;;;;9.18;2.25;;;21.00;98.20;;;;;;5021143;28;20119;-69
2022/03/16 01:45:16;;;;;;;11.18;2.10;;;21.00;98.10;;;;;;4996615;28;20087;-69
2022/03/16 01:47:43;;;;;;;25.60;4.57;;;21.00;98.00;;;;;;5030658;28;20034;-69
2022/03/16 01:50:11;;;;;;;21.05;3.90;;;21.10;98.10;;;;;;5030485;28;20048;-69
2022/03/16 01:52:38;;;;;;;18.90;3.88;;;21.20;98.10;;;;;;5030550;28;20088;-69
2022/03/16 01:55:06;;;;;;;13.68;3.53;;;21.20;97.90;;;;;;5011744;28;20372;-68
2022/03/16 01:57:34;;;;;;;18.85;3.78;;;21.20;97.90;;;;;;5000405;28;20034;-69
2022/03/16 02:00:04;;;;;;;13.70;2.58;;;21.30;98.00;;;;;;5012087;28;20403;-69
2022/03/16 02:02:31;;;;;;;18.58;3.70;;;21.30;97.50;;;;;;5019910;28;20112;-68
2022/03/16 02:04:58;;;;;;;22.00;4.28;;;21.30;97.50;;;;;;5024618;28;20064;-69
2022/03/16 02:07:25;;;;;;;16.05;4.00;;;21.30;97.50;;;;;;5012981;28;20103;-68
2022/03/16 02:09:53;;;;;;;18.08;3.00;;;21.30;97.30;;;;;;4992602;28;20030;-68
2022/03/16 02:12:20;;;;;;;15.48;3.45;;;21.30;97.30;;;;;;5030083;28;20087;-69
2022/03/16 02:14:47;;;;;;;12.23;2.95;;;21.30;97.30;;;;;;4995945;28;20034;-68
2022/03/16 02:17:14;;;;;;;11.07;2.22;;;21.40;97.40;;;;;;4996165;28;20028;-69
2022/03/16 02:19:42;;;;;;;13.90;3.90;;;21.30;96.70;;;;;;5030311;28;20041;-68
2022/03/16 02:22:10;;;;;;;12.45;3.22;;;21.20;96.50;;;;;;5030250;28;20381;-68
2022/03/16 02:24:37;;;;;;;10.65;2.10;;;21.30;97.00;;;;;;4996742;28;20040;-69
2022/03/16 02:27:05;;;;;;;11.88;2.20;;;21.20;96.30;;;;;;5033512;28;20060;-68
2022/03/16 02:29:34;;;;;;;17.02;3.40;;;21.20;95.10;;;;;;5038615;28;20124;-68
2022/03/16 02:32:01;;;;;;;27.00;4.23;;;21.30;95.90;;;;;;5002900;28;20128;-68
2022/03/16 02:34:28;;;;;;;45.17;5.53;;;21.30;96.00;;;;;;5012640;28;20037;-68
2022/03/16 02:36:55;;;;;;;15.07;3.33;;;21.40;96.00;;;;;;5029148;28;20057;-69
2022/03/16 02:39:22;;;;;;;27.98;4.55;;;21.40;96.10;;;;;;4995367;28;20033;-69
2022/03/16 02:41:52;;;;;;;17.90;2.67;;;21.50;96.40;;;;;;5029857;28;20041;-69
2022/03/16 02:44:19;;;;;;;20.88;3.05;;;21.60;96.30;;;;;;5012122;28;20570;-69
2022/03/16 02:46:46;;;;;;;13.55;2.85;;;21.60;95.80;;;;;;4995127;28;20396;-69
2022/03/16 02:49:13;;;;;;;21.52;3.47;;;21.60;95.80;;;;;;5013819;28;20049;-69
2022/03/16 02:51:40;;;;;;;25.17;3.20;;;21.70;95.90;;;;;;5029648;28;20156;-69
2022/03/16 02:54:08;;;;;;;16.92;3.05;;;21.80;95.50;;;;;;5011738;28;20121;-69
2022/03/16 02:56:35;;;;;;;11.57;2.60;;;21.80;95.40;;;;;;5011634;28;20041;-69
2022/03/16 02:59:03;;;;;;;10.98;2.05;;;21.80;95.10;;;;;;5027527;28;20041;-70
2022/03/16 03:01:30;;;;;;;31.17;4.35;;;21.80;94.60;;;;;;5019466;28;20041;-70
2022/03/16 03:03:57;;;;;;;37.80;3.90;;;21.90;94.90;;;;;;5033472;28;20029;-70
2022/03/16 03:06:25;;;;;;;38.00;4.22;;;22.00;94.60;;;;;;5019123;28;20400;-70
2022/03/16 03:08:52;;;;;;;41.47;4.30;;;21.90;94.30;;;;;;5033718;28;20036;-70
2022/03/16 03:11:20;;;;;;;22.63;3.40;;;22.00;94.30;;;;;;4984608;28;20046;-70
2022/03/16 03:13:48;;;;;;;24.85;3.30;;;21.90;93.40;;;;;;5033244;28;20029;-70
2022/03/16 03:16:15;;;;;;;31.38;4.32;;;21.80;93.10;;;;;;5014954;28;20040;-70
2022/03/16 03:18:42;;;;;;;52.15;3.85;;;21.80;93.00;;;;;;5029576;28;20451;-70
2022/03/16 03:21:10;;;;;;;34.08;5.05;;;21.90;93.40;;;;;;5016764;28;20037;-69
2022/03/16 03:23:37;;;;;;;17.25;3.03;;;21.90;92.70;;;;;;5012249;28;20025;-70
2022/03/16 03:26:04;;;;;;;15.93;2.70;;;21.80;92.70;;;;;;5014850;28;20037;-71
2022/03/16 03:28:31;;;;;;;35.38;4.75;;;21.80;92.50;;;;;;5020378;28;20045;-70
2022/03/16 03:30:58;;;;;;;18.73;3.42;;;21.80;92.60;;;;;;5030729;28;20411;-69
2022/03/16 03:33:25;;;;;;;33.50;3.78;;;21.90;93.00;;;;;;5032186;28;20037;-71
2022/03/16 03:35:53;;;;;;;24.60;4.85;;;21.90;93.10;;;;;;5013867;28;20091;-71
2022/03/16 03:38:20;;;;;;;10.38;2.63;;;22.00;93.40;;;;;;4998537;28;20088;-71
2022/03/16 03:40:47;;;;;;;21.77;4.97;;;22.00;93.30;;;;;;5031511;28;20037;-72
2022/03/16 03:43:14;;;;;;;15.60;2.47;;;22.00;93.00;;;;;;4996713;28;20311;-71
2022/03/16 03:45:41;;;;;;;15.27;2.95;;;22.00;91.70;;;;;;5015152;28;20021;-73
2022/03/16 03:48:09;;;;;;;10.80;2.47;;;22.10;91.80;;;;;;5037994;28;20039;-72
2022/03/16 03:50:36;;;;;;;8.48;2.30;;;22.10;91.00;;;;;;5030835;28;20764;-72
2022/03/16 03:53:03;;;;;;;10.15;2.25;;;22.00;90.10;;;;;;5027830;28;20120;-72
2022/03/16 03:55:30;;;;;;;13.23;3.25;;;22.10;91.10;;;;;;5015760;28;20033;-72
2022/03/16 03:57:57;;;;;;;18.13;3.90;;;22.20;91.80;;;;;;5025604;28;20034;-72
2022/03/16 04:00:25;;;;;;;17.75;2.58;;;22.20;91.40;;;;;;5026036;28;20080;-71
2022/03/16 04:02:52;;;;;;;15.13;2.65;;;22.10;90.70;;;;;;4997870;28;20053;-72
2022/03/16 04:05:19;;;;;;;14.55;2.83;;;22.00;89.00;;;;;;5013581;28;20087;-72
2022/03/16 04:07:48;;;;;;;8.52;2.10;;;22.00;90.10;;;;;;5013998;28;20041;-72
2022/03/16 04:10:15;;;;;;;10.40;2.72;;;22.00;89.20;;;;;;5031484;28;20044;-72
2022/03/16 04:12:43;;;;;;;16.45;2.45;;;22.10;89.90;;;;;;4997614;28;20033;-72
2022/03/16 04:15:10;;;;;;;14.65;2.90;;;22.20;89.80;;;;;;5031780;28;20124;-72
2022/03/16 04:17:37;;;;;;;14.77;2.83;;;22.30;90.70;;;;;;5008615;28;20029;-72
2022/03/16 04:20:06;;;;;;;46.83;4.57;;;22.30;88.50;;;;;;4998022;28;20140;-72
2022/03/16 04:22:33;;;;;;;12.27;3.17;;;22.20;88.80;;;;;;5008593;28;20033;-72
2022/03/16 04:25:00;;;;;;;10.40;2.40;;;22.20;86.80;;;;;;4994625;28;20036;-72
2022/03/16 04:27:29;;;;;;;11.55;2.35;;;22.10;87.90;;;;;;5020329;28;20044;-72
2022/03/16 04:29:56;;;;;;;9.52;1.83;;;22.20;87.80;;;;;;5036808;28;20049;-72
2022/03/16 04:32:23;;;;;;;16.83;2.58;;;22.10;88.00;;;;;;4990481;28;20037;-72
2022/03/16 04:34:50;;;;;;;16.00;2.63;;;22.10;89.10;;;;;;5012892;28;20367;-72
2022/03/16 04:37:17;;;;;;;8.48;2.10;;;22.10;88.80;;;;;;5016432;28;20044;-72
2022/03/16 04:39:44;;;;;;;5.50;1.70;;;22.10;89.40;;;;;;5013660;28;20033;-72
2022/03/16 04:42:12;;;;;;;8.10;1.80;;;22.00;88.80;;;;;;5030765;28;20049;-72
2022/03/16 04:44:39;;;;;;;6.95;1.60;;;22.10;88.80;;;;;;5013061;28;20025;-72
2022/03/16 04:47:06;;;;;;;8.30;1.70;;;22.00;88.30;;;;;;5011051;28;20495;-73
2022/03/16 04:49:33;;;;;;;15.38;2.28;;;22.00;88.30;;;;;;5029739;28;20033;-72
2022/03/16 04:52:01;;;;;;;9.57;2.00;;;22.10;87.70;;;;;;5012978;28;20439;-72
2022/03/16 04:54:28;;;;;;;14.50;2.10;;;22.10;88.20;;;;;;5030304;28;20068;-72
2022/03/16 04:56:56;;;;;;;14.40;2.20;;;22.10;87.00;;;;;;5030132;28;20030;-70
2022/03/16 04:59:23;;;;;;;11.15;2.10;;;22.10;86.60;;;;;;5013063;28;20025;-70
2022/03/16 05:01:51;;;;;;;17.50;2.10;;;22.20;87.20;;;;;;5005390;28;20048;-69
2022/03/16 05:04:18;;;;;;;10.18;2.10;;;22.20;87.40;;;;;;5017937;28;20030;-69
2022/03/16 05:06:45;;;;;;;15.25;5.60;;;22.20;87.60;;;;;;5012224;28;20364;-69
2022/03/16 05:09:12;;;;;;;7.22;2.50;;;22.10;87.00;;;;;;5030658;28;20458;-69
2022/03/16 05:11:41;;;;;;;15.77;4.57;;;22.10;87.20;;;;;;5030386;28;20045;-69
2022/03/16 05:14:09;;;;;;;11.15;2.50;;;22.10;87.10;;;;;;5034425;28;20045;-70
2022/03/16 05:16:37;;;;;;;10.75;2.25;;;22.20;87.60;;;;;;4997795;28;20145;-69
2022/03/16 05:19:04;;;;;;;18.27;3.13;;;22.20;87.40;;;;;;4995804;28;20549;-69
2022/03/16 05:21:31;;;;;;;23.08;3.50;;;22.20;86.60;;;;;;5031554;28;20356;-70
2022/03/16 05:23:59;;;;;;;11.05;2.40;;;22.30;87.80;;;;;;5030011;28;20034;-71
2022/03/16 05:26:26;;;;;;;9.68;2.25;;;22.30;86.30;;;;;;4997984;28;20029;-70
2022/03/16 05:28:53;;;;;;;20.45;2.78;;;22.30;83.80;;;;;;5001007;28;20045;-68
2022/03/16 05:31:21;;;;;;;16.75;2.78;;;22.40;86.50;;;;;;5025008;28;20491;-70
2022/03/16 05:33:49;;;;;;;16.55;2.67;;;22.30;83.80;;;;;;5010725;28;20030;-73
2022/03/16 05:36:16;;;;;;;11.43;2.55;;;22.40;85.40;;;;;;5010829;28;20029;-69
2022/03/16 05:38:43;;;;;;;16.35;3.30;;;22.40;85.70;;;;;;4994676;28;20033;-71
2022/03/16 05:41:11;;;;;;;15.75;3.33;;;22.40;85.00;;;;;;5010856;28;20447;-71
2022/03/16 05:43:38;;;;;;;17.58;3.40;;;22.50;84.20;;;;;;5030388;28;20250;-69
2022/03/16 05:46:06;;;;;;;13.48;2.38;;;22.50;86.00;;;;;;5012980;28;20038;-70
2022/03/16 05:48:33;;;;;;;15.90;2.47;;;22.50;85.90;;;;;;5013284;28;20028;-69
2022/03/16 05:51:00;;;;;;;13.25;2.75;;;22.50;86.20;;;;;;5030929;28;20036;-70
2022/03/16 05:53:27;;;;;;;9.70;2.20;;;22.60;85.80;;;;;;5030677;28;20056;-70
2022/03/16 05:55:54;;;;;;;13.50;2.10;;;22.50;85.90;;;;;;5029800;28;20047;-69
2022/03/16 05:58:21;;;;;;;10.40;2.17;;;22.50;84.40;;;;;;5030696;28;20021;-69
2022/03/16 06:00:49;;;;;;;17.48;2.83;;;22.40;84.20;;;;;;4996914;28;20431;-69
2022/03/16 06:03:16;;;;;;;11.60;2.10;;;22.40;84.90;;;;;;5012711;28;20433;-69
2022/03/16 06:05:43;;;;;;;12.35;2.00;;;22.40;85.30;;;;;;5030088;28;20040;-69
2022/03/16 06:08:10;;;;;;;14.05;2.45;;;22.30;84.70;;;;;;5030326;28;20029;-71
2022/03/16 06:10:39;;;;;;;10.32;2.50;;;22.30;85.40;;;;;;5012144;28;20403;-70
2022/03/16 06:13:06;;;;;;;12.07;2.55;;;22.30;86.20;;;;;;5030546;28;20026;-70
2022/03/16 06:15:43;;;;;;;11.60;2.65;;;22.30;86.40;;;;;;4995333;28;20041;-70
2022/03/16 06:18:11;;;;;;;12.68;2.65;;;22.30;85.40;;;;;;4996953;28;20286;-69
2022/03/16 06:20:38;;;;;;;11.15;2.17;;;22.30;84.50;;;;;;4996071;28;20029;-70
2022/03/16 06:23:06;;;;;;;12.98;3.20;;;22.30;84.70;;;;;;4996460;28;20066;-70
2022/03/16 06:25:34;;;;;;;11.77;2.78;;;22.30;85.30;;;;;;5030263;28;20484;-71
2022/03/16 06:28:01;;;;;;;12.18;2.45;;;22.30;83.00;;;;;;5030131;28;20495;-70
2022/03/16 06:30:28;;;;;;;16.38;3.17;;;22.40;84.80;;;;;;5007656;28;20129;-70
2022/03/16 06:32:56;;;;;;;15.45;2.90;;;22.40;85.10;;;;;;5011837;28;20392;-75
2022/03/16 06:35:23;;;;;;;11.07;2.60;;;22.40;84.10;;;;;;5021349;28;20491;-74
2022/03/16 06:37:50;;;;;;;14.85;2.53;;;22.40;84.90;;;;;;5029798;28;20238;-74
2022/03/16 06:40:17;;;;;;;13.88;3.00;;;22.40;85.50;;;;;;5017666;28;20051;-74
2022/03/16 06:42:48;;;;;;;9.07;2.05;;;22.50;85.90;;;;;;5010360;28;20523;-76
2022/03/16 06:45:16;;;;;;;8.52;2.08;;;22.40;86.30;;;;;;5009614;28;20068;-72
2022/03/16 06:47:44;;;;;;;7.25;2.20;;;22.30;85.80;;;;;;4995604;28;20096;-70
2022/03/16 06:50:11;;;;;;;11.88;2.60;;;22.30;86.10;;;;;;5004907;28;20476;-70
2022/03/16 06:52:39;;;;;;;19.55;3.00;;;22.30;86.20;;;;;;5013311;28;20096;-70
2022/03/16 06:55:08;;;;;;;8.63;2.47;;;22.30;86.20;;;;;;4995473;28;20042;-70
2022/03/16 06:57:35;;;;;;;10.77;3.05;;;22.30;86.40;;;;;;5014639;28;20383;-70
2022/03/16 07:00:03;;;;;;;10.52;1.85;;;22.30;86.00;;;;;;5030827;28;20033;-69
2022/03/16 07:02:31;;;;;;;14.23;3.00;;;22.30;86.50;;;;;;5014300;28;20068;-69
2022/03/16 07:04:59;;;;;;;11.07;2.60;;;22.30;86.10;;;;;;5018582;28;20424;-69
2022/03/16 07:07:27;;;;;;;12.57;2.35;;;22.30;86.70;;;;;;5026340;28;20124;-70
2022/03/16 07:09:54;;;;;;;10.73;2.35;;;22.20;86.80;;;;;;5015610;28;20105;-70
2022/03/16 07:12:29;;;;;;;12.98;2.83;;;22.20;86.30;;;;;;5015574;28;20894;-70
2022/03/16 07:14:56;;;;;;;13.45;2.83;;;22.20;86.70;;;;;;4993513;28;20033;-70
2022/03/16 07:17:23;;;;;;;12.05;2.78;;;22.20;87.00;;;;;;5011344;28;20026;-70
2022/03/16 07:19:50;;;;;;;9.90;2.33;;;22.20;87.10;;;;;;5006227;28;20034;-69
2022/03/16 07:57:54;;;;;;;11.88;2.45;;;22.10;87.40;;;;;;5008313;28;20084;-68
2022/03/16 08:00:21;;;;;;;16.92;3.45;;;22.10;87.40;;;;;;5012708;28;20081;-68
2022/03/16 08:02:48;;;;;;;15.98;2.95;;;22.00;87.00;;;;;;5025791;28;20033;-68
2022/03/16 08:05:16;;;;;;;15.23;3.15;;;22.10;87.10;;;;;;5013767;28;20472;-68
2022/03/16 08:07:43;;;;;;;19.48;3.08;;;22.00;87.30;;;;;;4978641;28;20042;-67
2022/03/16 08:10:11;;;;;;;12.32;2.50;;;22.10;87.30;;;;;;5013900;28;20080;-68
2022/03/16 08:12:38;;;;;;;16.38;3.85;;;22.00;87.40;;;;;;5014859;28;20044;-68
2022/03/16 08:15:08;;;;;;;17.42;2.83;;;22.00;86.90;;;;;;5032320;28;20524;-68
2022/03/16 08:17:35;;;;;;;13.20;2.75;;;22.00;86.90;;;;;;4997378;28;20033;-67
2022/03/16 08:20:03;;;;;;;14.80;3.35;;;22.00;86.90;;;;;;5013860;28;20040;-68
2022/03/16 08:22:33;;;;;;;16.95;3.22;;;22.00;86.70;;;;;;5014583;28;20037;-68
2022/03/16 08:25:00;;;;;;;;;;;21.90;86.40;;;;;;4998777;28;20030;-68
2022/03/16 08:27:28;;;;;;;15.45;2.90;;;21.90;86.60;;;;;;5013662;28;20003;-68
2022/03/16 08:29:55;;;;;;;11.07;2.67;;;22.00;86.00;;;;;;4996022;28;20084;-68
2022/03/16 08:32:22;;;;;;;12.18;2.33;;;22.00;86.50;;;;;;5011673;28;20116;-67
2022/03/16 08:34:50;;;;;;;12.48;2.60;;;22.00;86.60;;;;;;5027766;28;20527;-67
2022/03/16 08:37:18;;;;;;;10.10;2.95;;;22.00;86.80;;;;;;5007514;28;20502;-66
2022/03/16 08:39:46;;;;;;;11.68;2.72;;;22.00;87.30;;;;;;4992841;28;20022;-67
2022/03/16 08:42:14;;;;;;;14.38;2.92;;;22.00;87.30;;;;;;4992171;28;20128;-68
2022/03/16 08:44:42;;;;;;;10.30;3.22;;;22.00;87.70;;;;;;5027812;28;20073;-71
2022/03/16 08:47:16;;;;;;;14.95;2.83;;;22.00;87.90;;;;;;5000830;28;20089;-67
2022/03/16 08:49:45;;;;;;;12.48;3.25;;;22.00;87.80;;;;;;4998015;28;20038;-67
2022/03/16 08:52:12;;;;;;;15.27;3.35;;;21.90;87.80;;;;;;4983929;28;20100;-68
2022/03/16 08:54:40;;;;;;;13.40;3.35;;;22.00;87.90;;;;;;5013695;28;20091;-66
2022/03/16 08:57:10;;;;;;;15.98;2.88;;;22.00;87.40;;;;;;5030148;28;20033;-67
2022/03/16 08:59:38;;;;;;;17.45;3.22;;;22.00;88.00;;;;;;5029969;28;20038;-71
2022/03/16 09:02:06;;;;;;;14.57;2.95;;;22.00;86.10;;;;;;5013693;28;20045;-65
2022/03/16 09:04:34;;;;;;;19.70;3.28;;;22.00;86.90;;;;;;5030986;28;20041;-66
2022/03/16 09:07:04;;;;;;;16.40;3.67;;;22.00;87.30;;;;;;5019343;28;20056;-65
2022/03/16 09:09:31;;;;;;;13.60;3.35;;;22.00;87.70;;;;;;5025780;28;20041;-65
2022/03/16 09:11:58;;;;;;;14.13;3.17;;;22.00;87.80;;;;;;5031673;28;20030;-64
2022/03/16 09:14:25;;;;;;;16.60;3.38;;;22.00;87.50;;;;;;5010396;28;20030;-64
2022/03/16 09:16:53;;;;;;;15.98;4.03;;;22.00;87.90;;;;;;5011764;28;20057;-65
2022/03/16 09:19:23;;;;;;;12.52;2.90;;;22.00;88.00;;;;;;5019957;28;20030;-64
2022/03/16 09:21:50;;;;;;;15.82;3.42;;;22.00;88.00;;;;;;5026157;28;20033;-65
2022/03/16 09:24:18;;;;;;;12.32;2.80;;;21.90;87.60;;;;;;5009055;28;20029;-68
2022/03/16 09:26:45;;;;;;;20.52;3.40;;;21.90;87.50;;;;;;5003930;28;20124;-67
2022/03/16 09:31:38;;;;;;;16.33;3.15;;;22.00;88.20;;;;;;5027693;28;20042;-68
2022/03/16 09:34:06;;;;;;;11.18;3.15;;;21.90;88.20;;;;;;5012995;28;20045;-66
2022/03/16 09:36:37;;;;;;;16.73;2.90;;;21.90;88.20;;;;;;5023885;28;20057;-68
2022/03/16 09:39:05;;;;;;;16.13;3.13;;;21.90;88.30;;;;;;5013847;28;20029;-67
2022/03/16 09:41:32;;;;;;;17.38;4.10;;;21.90;88.20;;;;;;4996609;28;20049;-66
2022/03/16 09:44:00;;;;;;;14.13;3.63;;;21.90;88.60;;;;;;5030533;28;20511;-66
2022/03/16 09:46:31;;;;;;;18.92;4.57;;;21.90;88.80;;;;;;4996733;28;20124;-66
2022/03/16 09:48:58;;;;;;;18.85;3.65;;;21.90;88.80;;;;;;5012378;28;20029;-66
2022/03/16 09:51:26;;;;;;;21.13;4.45;;;21.90;88.80;;;;;;5012759;28;20480;-67
2022/03/16 09:53:53;;;;;;;20.95;3.83;;;21.90;88.80;;;;;;5012350;28;20032;-66
2022/03/16 09:56:21;;;;;;;16.05;3.03;;;21.90;89.10;;;;;;5029470;28;20114;-66
2022/03/16 09:58:49;;;;;;;13.85;2.50;;;21.90;88.00;;;;;;4996994;28;20022;-66
2022/03/16 10:01:18;;;;;;;15.38;2.53;;;21.90;88.70;;;;;;5028758;28;20052;-66
2022/03/16 10:03:48;;;;;;;18.95;3.80;;;21.90;88.50;;;;;;5025388;28;20033;-66
2022/03/16 10:06:17;;;;;;;13.98;3.17;;;21.90;89.00;;;;;;4999537;28;20033;-66
2022/03/16 10:14:15;;;;;;;16.85;3.45;;;21.80;89.00;;;;;;5004944;28;20400;-66
2022/03/16 10:19:57;;;;;;;9.13;2.20;;;21.80;89.50;;;;;;5015365;28;20056;-66
2022/03/16 10:22:30;;;;;;;13.45;2.70;;;21.90;89.20;;;;;;4993857;28;20042;-68
2022/03/16 10:25:03;;;;;;;15.15;3.35;;;21.80;89.30;;;;;;5020552;28;20034;-68
2022/03/16 10:27:31;;;;;;;12.65;2.80;;;21.80;89.60;;;;;;5010860;28;20037;-68
2022/03/16 10:29:58;;;;;;;11.68;2.80;;;21.80;89.80;;;;;;4995010;28;20442;-68
2022/03/16 10:32:26;;;;;;;11.13;2.67;;;21.80;89.70;;;;;;4991170;28;20407;-68
2022/03/16 10:34:54;;;;;;;6.95;2.45;;;21.80;89.20;;;;;;5029754;28;20033;-68
2022/03/16 10:37:22;;;;;;;13.88;2.45;;;21.80;89.30;;;;;;5011791;28;20041;-68
2022/03/16 10:39:53;;;;;;;12.98;2.97;;;21.80;89.40;;;;;;5029422;28;20036;-70
2022/03/16 10:48:15;;;;;;;14.13;2.47;;;21.80;89.50;;;;;;5012436;28;20048;-68
2022/03/16 10:50:43;;;;;;;10.43;2.10;;;21.80;89.30;;;;;;4988763;28;20046;-68
2022/03/16 10:53:11;;;;;;;15.20;2.53;;;21.80;89.50;;;;;;5017784;28;20038;-68
2022/03/16 10:55:41;;;;;;;8.75;2.22;;;21.80;89.50;;;;;;4974248;28;20054;-69
2022/03/16 10:58:09;;;;;;;7.25;2.47;;;21.80;89.40;;;;;;4994734;28;20098;-70
2022/03/16 11:00:37;;;;;;;9.32;2.42;;;21.80;89.30;;;;;;4996854;28;20112;-70
2022/03/16 11:03:15;;;;;;;10.93;2.47;;;21.80;89.20;;;;;;5011026;28;20449;-70
2022/03/16 11:05:45;;;;;;;16.02;2.65;;;21.80;89.50;;;;;;4993967;28;20453;-70
2022/03/16 11:08:12;;;;;;;10.35;2.22;;;21.80;89.70;;;;;;4991847;28;20073;-71
2022/03/16 11:10:41;;;;;;;12.38;2.58;;;21.80;89.00;;;;;;4994393;28;20337;-70
2022/03/16 11:15:56;;;;;;;10.30;2.20;;;21.80;89.50;;;;;;5015513;28;20044;-69
2022/03/16 11:18:23;;;;;;;14.32;3.35;;;21.80;89.70;;;;;;4990966;28;20046;-69
2022/03/16 11:20:56;;;;;;;15.13;3.10;;;21.80;89.70;;;;;;4999574;28;20443;-69
2022/03/16 11:26:35;;;;;;;12.32;2.35;;;21.80;89.90;;;;;;4998606;28;20044;-69
2022/03/16 11:29:33;;;;;;;10.02;2.45;;;21.80;90.00;;;;;;5011402;28;20034;-68
2022/03/16 11:32:10;;;;;;;10.50;2.20;;;21.80;90.10;;;;;;5031471;28;20037;-68
2022/03/16 11:34:37;;;;;;;9.18;2.22;;;21.80;90.00;;;;;;5013066;28;20196;-69
2022/03/16 11:37:07;;;;;;;12.70;2.20;;;21.80;90.00;;;;;;4993943;28;20037;-70
2022/03/16 11:39:47;;;;;;;14.50;3.22;;;21.80;89.80;;;;;;4984985;28;20041;-69
2022/03/16 11:42:19;;;;;;;10.65;2.15;;;21.80;89.90;;;;;;4998297;28;20042;-69
2022/03/16 11:44:46;;;;;;;8.57;2.20;;;21.80;89.80;;;;;;5016518;28;20041;-70
2022/03/16 11:47:16;;;;;;;9.80;1.92;;;21.80;89.80;;;;;;4998165;28;20489;-69
2022/03/16 11:50:03;;;;;;;8.48;1.90;;;21.80;89.60;;;;;;5016285;28;20038;-69
2022/03/16 11:53:04;;;;;;;12.43;2.25;;;21.80;89.60;;;;;;4994047;28;20037;-69
2022/03/16 11:55:43;;;;;;;8.38;1.95;;;21.80;89.00;;;;;;4999864;28;20065;-69
2022/03/16 11:58:30;;;;;;;12.38;2.00;;;21.80;89.20;;;;;;4995545;28;20078;-69
2022/03/16 12:01:22;;;;;;;11.32;2.20;;;21.80;89.30;;;;;;4999905;28;20057;-69
2022/03/16 12:04:23;;;;;;;7.20;1.90;;;21.80;89.10;;;;;;5025879;28;20084;-69
2022/03/16 12:07:06;;;;;;;10.75;2.28;;;21.80;89.10;;;;;;5021530;28;20384;-69
2022/03/16 12:09:45;;;;;;;6.88;1.85;;;21.80;89.40;;;;;;5005362;28;20033;-69
2022/03/16 12:15:19;;;;;;;19.98;2.75;;;21.80;89.50;;;;;;5001922;28;20067;-69
2022/03/16 12:17:55;;;;;;;10.07;2.13;;;21.70;89.60;;;;;;5009540;28;20117;-69
2022/03/16 12:20:25;;;;;;;9.63;2.22;;;21.80;89.60;;;;;;5030175;28;20526;-69
2022/03/16 12:22:54;;;;;;;9.35;2.45;;;21.80;89.60;;;;;;5025898;28;20099;-69
2022/03/16 12:25:27;;;;;;;13.10;2.42;;;21.70;89.70;;;;;;5029804;28;20096;-69
2022/03/16 12:30:54;;;;;;;9.15;2.00;;;21.70;89.70;;;;;;5015712;28;20070;-70
2022/03/16 12:33:26;;;;;;;15.40;2.88;;;21.70;89.60;;;;;;4996091;28;20076;-70
2022/03/16 12:35:55;;;;;;;7.15;1.98;;;21.70;89.70;;;;;;5013469;28;20502;-70
2022/03/16 12:38:23;;;;;;;9.57;2.40;;;21.60;89.80;;;;;;5027706;28;20040;-69
2022/03/16 12:43:37;;;;;;;9.77;2.08;;;21.60;90.00;;;;;;5029914;28;20146;-72
2022/03/16 12:46:27;;;;;;;13.05;2.13;;;21.60;90.10;;;;;;4997430;28;20025;-71
2022/03/16 13:38:47;;;;;;;11.60;2.42;;;21.20;91.80;;;;;;5025516;28;20111;-71
2022/03/16 13:41:14;;;;;;;11.70;2.37;;;21.10;92.00;;;;;;5028281;28;20458;-71
2022/03/16 13:43:42;;;;;;;11.38;2.70;;;21.10;92.10;;;;;;4996540;28;20045;-71
2022/03/16 13:46:14;;;;;;;15.07;3.33;;;21.10;92.20;;;;;;4999428;28;20025;-71
2022/03/16 13:48:42;;;;;;;13.00;3.15;;;21.10;92.20;;;;;;4997719;28;20035;-71
2022/03/16 13:51:11;;;;;;;10.80;3.20;;;21.00;92.20;;;;;;5012457;28;20033;-71
2022/03/16 13:53:47;;;;;;;11.32;3.47;;;21.00;92.30;;;;;;5009098;28;20455;-71
2022/03/16 13:56:18;;;;;;;14.43;3.65;;;21.00;92.30;;;;;;5011899;28;20083;-70
2022/03/16 13:58:50;;;;;;;14.70;3.33;;;21.00;92.30;;;;;;5010967;28;20139;-70
2022/03/16 14:01:27;;;;;;;12.77;3.35;;;20.90;92.50;;;;;;4980912;28;20045;-71
2022/03/16 14:04:04;;;;;;;15.43;3.45;;;20.80;92.70;;;;;;4996786;28;20052;-70
2022/03/16 14:06:39;;;;;;;12.57;3.08;;;20.80;93.00;;;;;;5012643;28;20112;-70
2022/03/16 14:09:26;;;;;;;15.65;3.28;;;20.80;93.20;;;;;;5011736;28;20652;-71
2022/03/16 14:11:55;;;;;;;20.75;3.63;;;20.80;93.30;;;;;;5019431;28;20047;-71
2022/03/16 14:14:22;;;;;;;12.45;3.40;;;20.80;93.40;;;;;;4989897;28;20105;-71
2022/03/16 14:16:51;;;;;;;18.05;3.30;;;20.80;93.50;;;;;;5012421;28;20100;-71
2022/03/16 14:19:45;;;;;;;14.35;3.05;;;20.80;93.60;;;;;;4997509;28;20088;-71
2022/03/16 14:22:18;;;;;;;14.20;3.17;;;20.70;93.70;;;;;;5009458;28;20124;-71
2022/03/16 14:24:45;;;;;;;12.70;3.25;;;20.70;93.80;;;;;;5026062;28;20566;-71
2022/03/16 14:27:19;;;;;;;13.20;3.50;;;20.70;93.80;;;;;;5020890;28;20034;-71
2022/03/16 14:29:47;;;;;;;13.13;3.22;;;20.70;93.90;;;;;;4994202;28;20060;-70
2022/03/16 14:32:15;;;;;;;13.20;3.20;;;20.70;93.90;;;;;;5010354;28;20042;-70
2022/03/16 14:34:43;;;;;;;11.65;3.05;;;20.70;93.80;;;;;;5028997;28;20033;-70
2022/03/16 14:37:10;;;;;;;10.70;2.78;;;20.70;93.70;;;;;;5026880;28;20388;-70
2022/03/16 14:56:51;;;;;;;9.80;2.60;;;20.50;93.50;;;;;;5018143;28;20053;-71
2022/03/16 14:59:18;;;;;;;9.80;2.70;;;20.50;93.60;;;;;;5006850;28;20121;-70
2022/03/16 15:01:45;;;;;;;12.20;2.40;;;20.50;93.50;;;;;;4996532;28;20045;-69